createdAt,value
2023-02-11T00:01:52.955Z,12.00
2023-02-11T00:04:24.875Z,12.95
2023-02-11T00:06:55.127Z,11.10
2023-02-11T00:09:24.393Z,11.60
2023-02-11T00:11:53.654Z,12.10
2023-02-11T00:14:22.891Z,11.55
2023-02-11T00:16:52.203Z,12.50
2023-02-11T00:19:21.578Z,10.85
2023-02-11T00:21:50.806Z,11.75
2023-02-11T00:24:20.070Z,10.65
2023-02-11T00:26:49.340Z,10.45
2023-02-11T00:29:18.730Z,9.98
2023-02-11T00:31:48.152Z,11.65
2023-02-11T00:34:17.578Z,12.57
2023-02-11T00:36:46.915Z,11.05
2023-02-11T00:39:17.284Z,10.65
2023-02-11T00:41:46.633Z,11.38
2023-02-11T00:44:15.999Z,10.77
2023-02-11T00:46:45.774Z,9.65
2023-02-11T00:49:15.252Z,9.77
2023-02-11T00:51:44.597Z,11.57
2023-02-11T00:54:14.438Z,11.27
2023-02-11T00:56:44.020Z,9.18
2023-02-11T00:59:13.497Z,10.10
2023-02-11T01:01:42.986Z,9.93
2023-02-11T01:04:12.443Z,10.00
2023-02-11T01:06:41.922Z,8.75
2023-02-11T01:09:11.286Z,9.57
2023-02-11T01:11:40.769Z,9.65
2023-02-11T01:14:10.269Z,10.40
2023-02-11T01:16:42.062Z,8.90
2023-02-11T01:19:11.558Z,8.85
2023-02-11T01:21:41.003Z,8.68
2023-02-11T01:24:10.430Z,7.93
2023-02-11T01:26:39.802Z,9.45
2023-02-11T01:29:09.554Z,8.55
2023-02-11T01:31:39.205Z,7.93
2023-02-11T01:34:08.744Z,9.43
2023-02-11T01:36:39.978Z,9.93
2023-02-11T01:39:09.566Z,8.48
2023-02-11T01:41:39.052Z,8.82
2023-02-11T01:44:31.812Z,8.18
2023-02-11T01:49:33.276Z,7.28
2023-02-11T01:52:12.017Z,8.80
2023-02-11T01:54:57.016Z,8.85
2023-02-11T01:57:29.048Z,7.70
2023-02-11T02:00:09.074Z,7.15
2023-02-11T02:02:55.385Z,7.55
2023-02-11T02:05:26.156Z,7.82
2023-02-11T02:08:08.454Z,8.95
2023-02-11T02:10:38.418Z,7.68
2023-02-11T02:13:07.857Z,8.02
2023-02-11T02:15:38.183Z,7.65
2023-02-11T02:18:22.969Z,8.73
2023-02-11T02:20:53.110Z,7.57
2023-02-11T02:23:23.639Z,7.68
2023-02-11T02:25:53.102Z,8.63
2023-02-11T02:28:31.937Z,7.63
2023-02-11T02:31:18.021Z,7.82
2023-02-11T02:33:54.710Z,7.47
2023-02-11T02:36:33.051Z,7.50
2023-02-11T02:39:06.078Z,7.90
2023-02-11T02:41:37.152Z,7.72
2023-02-11T02:44:10.675Z,7.68
2023-02-11T02:46:40.422Z,7.72
2023-02-11T02:49:15.200Z,7.78
2023-02-11T02:51:58.500Z,7.45
2023-02-11T02:54:39.823Z,7.68
2023-02-11T02:57:24.518Z,7.13
2023-02-11T03:00:11.701Z,7.47
2023-02-11T03:02:46.224Z,7.68
2023-02-11T03:05:26.465Z,6.95
2023-02-11T03:08:01.544Z,7.35
2023-02-11T03:10:39.375Z,7.32
2023-02-11T03:13:12.737Z,7.22
2023-02-11T03:15:46.025Z,7.03
2023-02-11T03:18:18.383Z,8.43
2023-02-11T03:20:50.053Z,8.75
2023-02-11T03:23:19.484Z,8.00
2023-02-11T03:25:53.150Z,7.25
2023-02-11T03:28:41.425Z,6.75
2023-02-11T03:31:16.807Z,7.55
2023-02-11T03:33:59.914Z,8.07
2023-02-11T03:36:35.601Z,6.50
2023-02-11T03:39:05.875Z,7.75
2023-02-11T03:41:36.672Z,7.20
2023-02-11T03:44:07.151Z,7.53
2023-02-11T03:46:39.788Z,7.03
2023-02-11T03:49:12.480Z,7.80
2023-02-11T03:51:42.186Z,8.45
2023-02-11T03:54:14.431Z,7.43
2023-02-11T03:56:51.976Z,7.22
2023-02-11T03:59:21.692Z,7.47
2023-02-11T04:01:51.119Z,7.68
2023-02-11T04:04:23.127Z,7.50
2023-02-11T04:06:54.838Z,7.30
2023-02-11T04:09:24.312Z,7.03
2023-02-11T04:11:53.728Z,7.53
2023-02-11T04:14:23.128Z,7.55
2023-02-11T04:16:53.677Z,7.57
2023-02-11T04:19:23.177Z,7.38
2023-02-11T04:21:54.995Z,7.10
2023-02-11T04:24:24.577Z,7.22
2023-02-11T04:26:54.074Z,8.13
2023-02-11T04:29:23.479Z,6.93
2023-02-11T04:31:52.914Z,7.65
2023-02-11T04:34:25.370Z,6.95
2023-02-11T04:36:55.027Z,7.53
2023-02-11T04:39:24.458Z,7.20
2023-02-11T04:41:54.151Z,7.55
2023-02-11T04:44:23.690Z,6.72
2023-02-11T04:46:53.141Z,6.43
2023-02-11T04:49:23.758Z,7.88
2023-02-11T04:51:53.329Z,6.80
2023-02-11T04:54:22.849Z,10.45
2023-02-11T04:56:53.230Z,7.32
2023-02-11T04:59:24.947Z,7.22
2023-02-11T05:01:54.374Z,6.80
2023-02-11T05:04:23.931Z,7.03
2023-02-11T05:06:53.376Z,7.10
2023-02-11T05:09:22.828Z,6.53
2023-02-11T05:11:53.344Z,7.60
2023-02-11T05:14:22.813Z,9.35
2023-02-11T05:16:52.320Z,6.88
2023-02-11T05:19:21.841Z,7.25
2023-02-11T05:22:02.589Z,7.32
2023-02-11T05:24:34.332Z,7.95
2023-02-11T05:27:04.015Z,7.30
2023-02-11T05:29:33.476Z,7.22
2023-02-11T05:32:02.867Z,8.27
2023-02-11T05:34:32.257Z,7.32
2023-02-11T05:37:01.657Z,8.93
2023-02-11T05:39:31.062Z,8.23
2023-02-11T05:42:00.666Z,7.82
2023-02-11T05:44:30.157Z,7.60
2023-02-11T05:46:59.522Z,7.45
2023-02-11T05:49:28.873Z,6.93
2023-02-11T05:51:58.259Z,8.07
2023-02-11T05:54:27.753Z,7.47
2023-02-11T05:56:57.220Z,8.07
2023-02-11T05:59:27.979Z,8.65
2023-02-11T06:01:57.547Z,7.28
2023-02-11T06:04:26.971Z,8.48
2023-02-11T06:06:56.375Z,7.38
2023-02-11T06:09:25.935Z,7.75
2023-02-11T06:11:55.744Z,8.50
2023-02-11T06:14:25.118Z,8.27
2023-02-11T06:16:54.597Z,8.85
2023-02-11T06:19:23.914Z,7.93
2023-02-11T06:21:53.366Z,8.63
2023-02-11T06:24:50.947Z,8.25
2023-02-11T06:27:14.576Z,8.10
2023-02-11T06:29:44.018Z,9.38
2023-02-11T06:32:33.579Z,7.95
2023-02-11T06:35:02.950Z,8.98
2023-02-11T06:37:32.167Z,8.27
2023-02-11T06:40:01.433Z,9.77
2023-02-11T06:42:30.708Z,10.70
2023-02-11T06:44:59.956Z,9.57
2023-02-11T06:47:29.260Z,8.40
2023-02-11T06:49:58.549Z,8.05
2023-02-11T06:52:27.826Z,9.52
2023-02-11T06:54:57.121Z,9.48
2023-02-11T06:57:26.430Z,9.40
2023-02-11T06:59:55.758Z,9.35
2023-02-11T07:02:25.231Z,10.40
2023-02-11T07:04:54.571Z,10.38
2023-02-11T07:07:23.944Z,10.10
2023-02-11T07:09:53.286Z,10.38
2023-02-11T07:12:23.728Z,10.77
2023-02-11T07:14:53.091Z,10.23
2023-02-11T07:17:22.572Z,11.93
2023-02-11T07:19:51.931Z,10.85
2023-02-11T07:22:23.722Z,10.95
2023-02-11T07:24:53.412Z,11.38
2023-02-11T07:27:22.707Z,11.50
2023-02-11T07:29:52.036Z,11.65
2023-02-11T07:32:21.877Z,12.45
2023-02-11T07:34:51.156Z,11.52
2023-02-11T07:37:21.630Z,11.40
2023-02-11T07:39:51.044Z,13.07
2023-02-11T07:42:23.148Z,12.50
2023-02-11T07:44:54.465Z,12.32
2023-02-11T07:47:23.700Z,12.00
2023-02-11T07:49:55.408Z,13.98
2023-02-11T07:52:25.768Z,14.05
2023-02-11T07:54:58.017Z,13.35
2023-02-11T07:57:27.327Z,11.63
2023-02-11T07:59:56.616Z,14.15
2023-02-11T08:02:25.927Z,13.52
2023-02-11T08:04:55.376Z,15.00
2023-02-11T08:07:24.778Z,13.23
2023-02-11T08:09:55.613Z,14.52
2023-02-11T08:12:24.988Z,14.50
2023-02-11T08:14:54.295Z,14.23
2023-02-11T08:17:26.183Z,14.15
2023-02-11T08:19:55.538Z,15.10
2023-02-11T08:22:24.816Z,16.83
2023-02-11T08:24:54.077Z,15.38
2023-02-11T08:27:23.339Z,16.40
2023-02-11T08:29:52.631Z,16.20
2023-02-11T08:32:22.020Z,16.13
2023-02-11T08:34:54.897Z,15.65
2023-02-11T08:37:24.175Z,16.73
2023-02-11T08:39:53.431Z,16.50
2023-02-11T08:42:22.751Z,16.80
2023-02-11T08:44:52.027Z,16.30
2023-02-11T08:47:22.726Z,15.90
2023-02-11T08:49:52.054Z,17.30
2023-02-11T08:52:21.572Z,16.98
2023-02-11T08:54:51.058Z,18.15
2023-02-11T08:57:20.710Z,17.75
2023-02-11T08:59:50.031Z,17.10
2023-02-11T09:02:19.450Z,17.25
2023-02-11T09:04:48.831Z,17.58
2023-02-11T09:07:18.221Z,18.27
2023-02-11T09:09:47.464Z,18.75
2023-02-11T09:12:16.722Z,19.75
2023-02-11T09:14:49.178Z,18.15
2023-02-11T09:19:47.680Z,15.93
2023-02-11T09:22:17.003Z,19.48
2023-02-11T09:24:46.242Z,18.88
2023-02-11T09:27:15.550Z,17.15
2023-02-11T09:29:44.818Z,18.30
2023-02-11T09:32:14.231Z,17.55
2023-02-11T09:34:43.696Z,18.42
2023-02-11T09:37:13.361Z,18.42
2023-02-11T09:39:42.689Z,18.92
2023-02-11T09:42:34.958Z,18.77
2023-02-11T09:45:05.262Z,19.63
2023-02-11T09:47:35.425Z,19.10
2023-02-11T09:50:09.845Z,18.65
2023-02-11T09:52:58.670Z,18.00
2023-02-11T09:55:30.198Z,18.35
2023-02-11T09:58:00.399Z,20.77
2023-02-11T10:00:33.616Z,19.00
2023-02-11T10:03:21.716Z,18.55
2023-02-11T10:05:53.811Z,20.00
2023-02-11T10:08:30.900Z,19.55
2023-02-11T10:11:06.908Z,18.00
2023-02-11T10:13:43.505Z,18.67
2023-02-11T10:16:22.090Z,16.90
2023-02-11T10:19:13.962Z,19.42
2023-02-11T10:21:56.103Z,18.37
2023-02-11T10:24:25.661Z,18.48
2023-02-11T10:26:55.256Z,19.60
2023-02-11T10:29:30.535Z,20.10
2023-02-11T10:32:01.126Z,19.33
2023-02-11T10:34:30.510Z,19.52
2023-02-11T10:37:00.387Z,19.90
2023-02-11T10:39:31.946Z,18.65
2023-02-11T10:42:04.972Z,19.17
2023-02-11T10:44:36.263Z,20.83
2023-02-11T10:47:14.229Z,18.67
2023-02-11T10:49:44.883Z,20.42
2023-02-11T10:52:18.728Z,19.42
2023-02-11T10:55:01.589Z,21.58
2023-02-11T10:57:36.520Z,20.67
2023-02-11T11:00:23.868Z,19.58
2023-02-11T11:02:58.064Z,19.75
2023-02-11T11:05:54.355Z,20.60
2023-02-11T11:08:24.857Z,17.45
2023-02-11T11:11:17.531Z,19.05
2023-02-11T11:13:56.455Z,18.77
2023-02-11T11:16:25.793Z,20.10
2023-02-11T11:19:10.490Z,21.75
2023-02-11T11:21:46.008Z,20.42
2023-02-11T11:24:26.803Z,20.17
2023-02-11T11:26:58.521Z,20.50
2023-02-11T11:29:30.949Z,22.05
2023-02-11T11:34:35.277Z,19.90
2023-02-11T11:37:12.412Z,19.33
2023-02-11T11:39:42.054Z,18.80
2023-02-11T11:42:27.247Z,20.45
2023-02-11T11:45:15.367Z,19.10
2023-02-11T11:47:44.625Z,19.40
2023-02-11T11:50:25.899Z,19.88
2023-02-11T11:52:58.450Z,19.80
2023-02-11T11:55:30.105Z,18.83
2023-02-11T11:57:59.424Z,18.45
2023-02-11T12:00:42.095Z,16.90
2023-02-11T12:05:47.048Z,18.05
2023-02-11T12:08:19.475Z,18.05
2023-02-11T12:13:24.250Z,17.35
2023-02-11T12:16:02.675Z,19.10
2023-02-11T12:18:39.331Z,18.77
2023-02-11T12:21:14.675Z,18.45
2023-02-11T12:24:02.692Z,17.85
2023-02-11T12:26:47.194Z,18.08
2023-02-11T12:29:40.084Z,17.38
2023-02-11T12:32:09.586Z,18.40
2023-02-11T12:34:51.940Z,17.75
2023-02-11T12:37:21.535Z,18.73
2023-02-11T12:40:06.194Z,17.35
2023-02-11T12:43:06.761Z,19.48
2023-02-11T12:45:55.565Z,17.00
2023-02-11T12:48:40.192Z,16.00
2023-02-11T12:51:28.342Z,17.60
2023-02-11T12:54:16.119Z,18.08
2023-02-11T12:56:49.466Z,17.70
2023-02-11T12:59:33.739Z,15.07
2023-02-11T13:02:03.858Z,15.32
2023-02-11T13:04:41.675Z,16.00
2023-02-11T13:07:18.423Z,16.15
2023-02-11T13:10:02.097Z,15.35
2023-02-11T13:12:44.949Z,14.02
2023-02-11T13:15:16.880Z,16.10
2023-02-11T13:17:54.980Z,16.50
2023-02-11T13:20:38.826Z,15.52
2023-02-11T13:23:18.728Z,14.30
2023-02-11T13:25:55.701Z,13.82
2023-02-11T13:28:36.551Z,14.02
2023-02-11T13:31:08.014Z,14.90
2023-02-11T13:33:39.580Z,14.93
2023-02-11T13:36:08.813Z,14.57
2023-02-11T13:38:38.772Z,16.40
2023-02-11T13:41:09.278Z,14.07
2023-02-11T13:43:39.275Z,14.90
2023-02-11T13:46:10.147Z,14.65
2023-02-11T13:48:40.755Z,14.20
2023-02-11T13:51:11.549Z,13.60
2023-02-11T13:53:52.323Z,15.20
2023-02-11T13:56:36.772Z,14.35
2023-02-11T13:59:24.769Z,14.10
2023-02-11T14:02:14.116Z,14.73
2023-02-11T14:05:14.578Z,14.65
2023-02-11T14:08:16.254Z,14.52
2023-02-11T14:10:45.511Z,13.77
2023-02-11T14:13:24.941Z,13.90
2023-02-11T14:16:07.735Z,14.65
2023-02-11T14:18:41.279Z,14.98
2023-02-11T14:21:33.183Z,15.20
2023-02-11T14:24:07.083Z,13.90
2023-02-11T14:26:42.247Z,14.88
2023-02-11T14:29:22.816Z,15.85
2023-02-11T14:31:57.937Z,15.13
2023-02-11T14:34:38.771Z,15.40
2023-02-11T14:37:18.802Z,15.23
2023-02-11T14:39:49.236Z,14.75
2023-02-11T14:42:21.603Z,15.00
2023-02-11T14:47:21.804Z,14.00
2023-02-11T14:49:51.410Z,13.95
2023-02-11T14:52:23.769Z,15.48
2023-02-11T14:54:53.932Z,14.20
2023-02-11T14:57:23.457Z,15.13
2023-02-11T15:00:03.374Z,16.40
2023-02-11T15:02:36.250Z,16.92
2023-02-11T15:05:23.847Z,15.70
2023-02-11T15:07:55.298Z,15.70
2023-02-11T15:10:43.948Z,16.00
2023-02-11T15:13:19.104Z,16.65
2023-02-11T15:15:49.583Z,16.20
2023-02-11T15:18:24.275Z,15.15
2023-02-11T15:20:54.201Z,16.23
2023-02-11T15:23:28.193Z,15.20
2023-02-11T15:25:58.271Z,15.25
2023-02-11T15:28:31.687Z,15.68
2023-02-11T15:31:01.211Z,16.45
2023-02-11T15:33:32.768Z,15.75
2023-02-11T15:36:03.552Z,16.50
2023-02-11T15:38:33.037Z,15.90
2023-02-11T15:41:07.574Z,15.30
2023-02-11T15:43:43.628Z,16.13
2023-02-11T15:46:14.291Z,15.68
2023-02-11T15:48:47.852Z,17.25
2023-02-11T15:51:25.451Z,16.40
2023-02-11T15:54:13.622Z,16.15
2023-02-11T15:56:44.825Z,17.02
2023-02-11T15:59:20.370Z,15.77
2023-02-11T16:01:50.871Z,15.75
2023-02-11T16:04:21.938Z,16.25
2023-02-11T16:06:51.472Z,15.82
2023-02-11T16:09:37.742Z,16.92
2023-02-11T16:12:09.437Z,16.23
2023-02-11T16:14:39.712Z,15.82
2023-02-11T16:17:08.971Z,15.98
2023-02-11T16:19:38.669Z,16.33
2023-02-11T16:22:13.086Z,15.75
2023-02-11T16:24:42.485Z,16.02
2023-02-11T16:27:29.744Z,17.05
2023-02-11T16:29:59.746Z,17.25
2023-02-11T16:32:30.236Z,15.32
2023-02-11T16:35:01.840Z,16.95
2023-02-11T16:37:31.699Z,17.88
2023-02-11T16:40:00.979Z,16.92
2023-02-11T16:42:30.290Z,15.07
2023-02-11T16:45:00.352Z,16.30
2023-02-11T16:47:31.170Z,17.95
2023-02-11T16:50:01.562Z,17.08
2023-02-11T16:52:31.506Z,16.05
2023-02-11T16:55:01.632Z,17.23
2023-02-11T16:57:30.901Z,16.65
2023-02-11T17:00:00.648Z,16.75
2023-02-11T17:02:31.330Z,15.82
2023-02-11T17:05:01.492Z,16.30
2023-02-11T17:07:31.131Z,17.02
2023-02-11T17:10:00.435Z,15.82
2023-02-11T17:12:29.836Z,17.00
2023-02-11T17:14:59.234Z,17.10
2023-02-11T17:17:30.012Z,16.05
2023-02-11T17:19:59.621Z,15.00
2023-02-11T17:22:28.948Z,14.30
2023-02-11T17:24:58.844Z,17.23
2023-02-11T17:27:28.115Z,16.55
2023-02-11T17:29:57.561Z,15.32
2023-02-11T17:32:26.845Z,16.33
2023-02-11T17:34:56.668Z,17.05
2023-02-11T17:37:26.821Z,16.15
2023-02-11T17:39:56.162Z,16.40
2023-02-11T17:42:25.533Z,16.48
2023-02-11T17:44:54.770Z,17.55
2023-02-11T17:47:24.166Z,16.98
2023-02-11T17:49:53.424Z,16.42
2023-02-11T17:52:24.300Z,16.50
2023-02-11T17:54:53.590Z,16.48
2023-02-11T17:57:22.928Z,19.10
2023-02-11T17:59:52.238Z,18.10
2023-02-11T18:02:21.685Z,17.20
2023-02-11T18:04:52.678Z,17.55
2023-02-11T18:07:22.750Z,17.92
2023-02-11T18:09:52.445Z,17.73
2023-02-11T18:12:25.755Z,17.23
2023-02-11T18:14:58.179Z,17.67
2023-02-11T18:17:28.118Z,17.88
2023-02-11T18:19:58.944Z,16.50
2023-02-11T18:22:28.559Z,15.88
2023-02-11T18:24:57.941Z,16.90
2023-02-11T18:27:28.131Z,15.80
2023-02-11T18:29:57.458Z,15.15
2023-02-11T18:32:26.792Z,16.15
2023-02-11T18:34:56.040Z,16.13
2023-02-11T18:37:25.612Z,16.65
2023-02-11T18:39:55.256Z,16.23
2023-02-11T18:42:24.891Z,16.65
2023-02-11T18:44:54.518Z,17.95
2023-02-11T18:47:24.224Z,16.67
2023-02-11T18:49:53.868Z,16.90
2023-02-11T18:52:23.716Z,18.33
2023-02-11T18:54:54.042Z,18.35
2023-02-11T18:57:23.811Z,19.52
2023-02-11T18:59:53.533Z,20.35
2023-02-11T19:02:25.028Z,19.92
2023-02-11T19:04:54.608Z,17.55
2023-02-11T19:07:25.327Z,19.67
2023-02-11T19:09:55.064Z,18.50
2023-02-11T19:12:24.706Z,18.90
2023-02-11T19:14:54.462Z,18.38
2023-02-11T19:17:24.103Z,17.45
2023-02-11T19:19:54.091Z,18.00
2023-02-11T19:22:23.631Z,18.23
2023-02-11T19:24:53.306Z,16.17
2023-02-11T19:27:25.566Z,15.60
2023-02-11T19:29:55.017Z,16.30
2023-02-11T19:32:24.716Z,16.98
2023-02-11T19:34:54.377Z,16.63
2023-02-11T19:37:23.864Z,16.88
2023-02-11T19:39:53.292Z,16.05
2023-02-11T19:42:23.559Z,18.50
2023-02-11T19:44:54.166Z,17.47
2023-02-11T19:47:27.912Z,17.00
2023-02-11T19:49:57.559Z,17.38
2023-02-11T19:52:27.103Z,16.40
2023-02-11T19:54:56.653Z,18.48
2023-02-11T19:57:26.688Z,16.90
2023-02-11T19:59:57.123Z,17.20
2023-02-11T20:02:27.031Z,16.80
2023-02-11T20:04:56.903Z,17.85
2023-02-11T20:07:27.196Z,18.50
2023-02-11T20:09:56.855Z,17.85
2023-02-11T20:12:26.236Z,18.33
2023-02-11T20:14:55.947Z,19.10
2023-02-11T20:17:27.747Z,19.02
2023-02-11T20:19:57.072Z,18.90
2023-02-11T20:22:26.448Z,18.33
2023-02-11T20:24:55.707Z,18.13
2023-02-11T20:27:25.046Z,17.25
2023-02-11T20:29:54.340Z,17.02
2023-02-11T20:32:23.718Z,16.50
2023-02-11T20:34:53.288Z,17.05
2023-02-11T20:37:22.676Z,18.85
2023-02-11T20:39:51.996Z,18.90
2023-02-11T20:42:21.325Z,16.25
2023-02-11T20:44:50.838Z,17.60
2023-02-11T20:47:20.098Z,16.98
2023-02-11T20:49:49.398Z,17.48
2023-02-11T20:52:18.719Z,16.00
2023-02-11T20:54:48.061Z,15.68
2023-02-11T20:57:17.622Z,16.55
2023-02-11T20:59:46.970Z,15.48
2023-02-11T21:02:16.431Z,15.43
2023-02-11T21:04:45.930Z,16.75
2023-02-11T21:07:15.179Z,14.55
2023-02-11T21:09:44.466Z,15.75
2023-02-11T21:12:13.843Z,17.52
2023-02-11T21:14:43.128Z,15.77
2023-02-11T21:17:13.079Z,17.55
2023-02-11T21:19:43.369Z,16.70
2023-02-11T21:22:12.682Z,17.80
2023-02-11T21:24:41.972Z,17.30
2023-02-11T21:27:11.309Z,17.20
2023-02-11T21:29:53.417Z,18.67
2023-02-11T21:34:54.039Z,16.15
2023-02-11T21:37:23.733Z,16.73
2023-02-11T21:39:53.136Z,17.60
2023-02-11T21:42:23.698Z,17.48
2023-02-11T21:44:52.984Z,16.60
2023-02-11T21:47:22.562Z,17.77
2023-02-11T21:49:51.862Z,18.77
2023-02-11T21:52:23.143Z,19.13
2023-02-11T21:54:53.263Z,17.88
2023-02-11T21:57:25.435Z,19.48
2023-02-11T21:59:54.798Z,17.80
2023-02-11T22:02:24.084Z,18.10
2023-02-11T22:04:53.428Z,17.00
2023-02-11T22:07:23.569Z,17.42
2023-02-11T22:09:54.764Z,17.40
2023-02-11T22:12:24.537Z,16.85
2023-02-11T22:14:53.808Z,19.30
2023-02-11T22:17:23.289Z,17.33
2023-02-11T22:19:52.825Z,18.25
2023-02-11T22:22:22.186Z,18.90
2023-02-11T22:24:51.595Z,19.33
2023-02-11T22:27:21.044Z,19.58
2023-02-11T22:29:50.510Z,19.90
2023-02-11T22:32:19.996Z,16.63
2023-02-11T22:34:52.130Z,17.92
2023-02-11T22:37:22.559Z,16.73
2023-02-11T22:39:54.561Z,20.23
2023-02-11T22:42:23.891Z,20.98
2023-02-11T22:44:53.290Z,27.52
2023-02-11T22:47:22.752Z,24.42
2023-02-11T22:49:52.012Z,18.40
2023-02-11T22:52:22.680Z,19.80
2023-02-11T22:54:55.185Z,20.30
2023-02-11T22:57:24.441Z,19.45
2023-02-11T22:59:53.762Z,18.70
2023-02-11T23:02:23.247Z,18.13
2023-02-11T23:04:52.706Z,18.80
2023-02-11T23:07:21.998Z,18.05
2023-02-11T23:09:51.391Z,17.23
2023-02-11T23:14:53.691Z,17.02
2023-02-11T23:17:25.038Z,15.73
2023-02-11T23:19:54.458Z,17.33
2023-02-11T23:22:23.775Z,18.70
2023-02-11T23:24:53.216Z,17.52
2023-02-11T23:27:22.834Z,18.08
2023-02-11T23:29:52.188Z,17.70
2023-02-11T23:32:22.921Z,17.00
2023-02-11T23:34:52.873Z,15.90
2023-02-11T23:37:22.170Z,16.40
2023-02-11T23:39:51.643Z,15.65
2023-02-11T23:42:20.992Z,15.57
2023-02-11T23:44:50.308Z,16.20
2023-02-11T23:47:19.600Z,16.67
2023-02-11T23:49:48.910Z,15.45
2023-02-11T23:52:18.272Z,15.50
2023-02-11T23:54:48.368Z,14.35
2023-02-11T23:57:17.825Z,14.60
2023-02-11T23:59:47.276Z,14.90
